Mountville, Georgia
Current Conditions -  °F | °C
As of 12:15 PM on Sunday 23 Nov 2014 (Local Time) from KLGC Reporting Station
Thunderstorm Thunderstorm  
Wind Chill: 62°   Ceiling: 600
Heat Index: 62°   Visibility: 4mi
Dew Point: 61°   Wind: 6mph
Humidity: 97%   Direction: 100°E
Pressure: 29.84"   Gusts: NA
Location:  33.0399°N, 84.8806°W
Report Text: KLGC 231715Z AUTO 10005KT 4SM +TSRA OVC006 17/16 A2984 RMK AO2 LTG DSNT ALQS T01660162
Loading
Personal Weather Stations






























Interactive Weather Map New forecast layout! Learn more

10-Day Weather Forecast

Advertisements
Track Severe Weather on mobile